createdAt,value
2024-03-12T00:02:48.656Z,86.60
2024-03-12T00:05:36.189Z,86.60
2024-03-12T00:08:25.273Z,86.80
2024-03-12T00:11:12.723Z,87.40
2024-03-12T00:14:00.841Z,86.90
2024-03-12T00:16:48.370Z,86.70
2024-03-12T00:19:36.201Z,87.20
2024-03-12T00:22:23.668Z,87.70
2024-03-12T00:25:12.768Z,87.50
2024-03-12T00:28:00.547Z,87.40
2024-03-12T00:30:47.920Z,88.10
2024-03-12T00:33:35.784Z,87.60
2024-03-12T00:36:23.496Z,87.90
2024-03-12T00:39:11.611Z,87.60
2024-03-12T00:42:00.491Z,88.00
2024-03-12T00:44:49.763Z,88.20
2024-03-12T00:47:38.055Z,88.30
2024-03-12T00:50:25.708Z,88.50
2024-03-12T00:53:14.501Z,88.40
2024-03-12T00:56:04.347Z,88.70
2024-03-12T00:58:53.536Z,89.30
2024-03-12T01:01:40.871Z,89.20
2024-03-12T01:04:28.629Z,89.50
2024-03-12T01:07:17.483Z,89.60
2024-03-12T01:10:07.278Z,89.80
2024-03-12T01:12:56.710Z,90.50
2024-03-12T01:15:47.218Z,90.80
2024-03-12T01:18:34.665Z,90.60
2024-03-12T01:21:22.477Z,90.00
2024-03-12T01:24:09.730Z,90.00
2024-03-12T01:26:57.583Z,90.00
2024-03-12T01:29:44.856Z,90.20
2024-03-12T01:32:34.312Z,89.40
2024-03-12T01:35:22.297Z,89.70
2024-03-12T01:38:11.945Z,89.50
2024-03-12T01:41:00.084Z,89.70
2024-03-12T01:43:56.574Z,90.00
2024-03-12T01:46:56.072Z,89.70
2024-03-12T01:49:45.679Z,89.90
2024-03-12T01:52:33.060Z,89.60
2024-03-12T01:55:21.033Z,90.30
2024-03-12T01:58:08.655Z,89.60
2024-03-12T02:00:56.643Z,90.10
2024-03-12T02:03:48.699Z,90.60
2024-03-12T02:06:37.696Z,91.00
2024-03-12T02:09:26.650Z,90.50
2024-03-12T02:12:13.880Z,90.90
2024-03-12T02:15:04.462Z,91.40
2024-03-12T02:17:53.418Z,91.20
2024-03-12T02:20:41.611Z,91.10
2024-03-12T02:23:37.813Z,91.50
2024-03-12T02:26:26.035Z,91.90
2024-03-12T02:29:14.488Z,91.60
2024-03-12T02:32:01.792Z,91.90
2024-03-12T02:34:50.701Z,92.30
2024-03-12T02:37:39.998Z,92.20
2024-03-12T02:40:29.588Z,92.10
2024-03-12T02:43:17.049Z,92.80
2024-03-12T02:46:04.762Z,93.10
2024-03-12T02:48:52.882Z,92.70
2024-03-12T02:51:40.681Z,92.90
2024-03-12T02:54:28.007Z,92.60
2024-03-12T02:57:16.938Z,92.70
2024-03-12T03:00:15.079Z,92.60
2024-03-12T03:03:04.378Z,92.80
2024-03-12T03:05:51.639Z,92.80
2024-03-12T03:08:39.258Z,93.00
2024-03-12T03:11:26.852Z,93.20
2024-03-12T03:14:16.114Z,93.20
2024-03-12T03:17:03.365Z,93.10
2024-03-12T03:19:51.778Z,93.60
2024-03-12T03:22:39.319Z,94.00
2024-03-12T03:25:27.365Z,93.60
2024-03-12T03:28:15.655Z,93.70
2024-03-12T03:31:05.528Z,93.50
2024-03-12T03:33:53.312Z,93.40
2024-03-12T03:36:41.138Z,93.50
2024-03-12T03:39:33.034Z,94.00
2024-03-12T03:42:21.552Z,94.50
2024-03-12T03:45:09.395Z,94.50
2024-03-12T03:47:58.386Z,94.50
2024-03-12T03:50:46.328Z,94.70
2024-03-12T03:53:34.316Z,94.70
2024-03-12T03:56:23.181Z,94.70
2024-03-12T03:59:14.304Z,95.10
2024-03-12T04:02:02.059Z,94.70
2024-03-12T04:04:50.812Z,96.10
2024-03-12T04:07:39.420Z,95.20
2024-03-12T04:10:27.088Z,95.60
2024-03-12T04:13:15.774Z,96.20
2024-03-12T04:16:04.904Z,96.00
2024-03-12T04:18:52.253Z,95.80
2024-03-12T04:21:41.197Z,95.70
2024-03-12T04:24:28.747Z,96.10
2024-03-12T04:27:16.782Z,96.10
2024-03-12T04:30:05.766Z,96.10
2024-03-12T04:32:53.380Z,96.50
2024-03-12T04:35:40.833Z,96.30
2024-03-12T04:38:31.700Z,96.60
2024-03-12T04:41:22.109Z,96.40
2024-03-12T04:44:09.530Z,96.20
2024-03-12T04:46:57.389Z,96.80
2024-03-12T04:49:44.659Z,97.00
2024-03-12T04:52:35.135Z,97.70
2024-03-12T04:55:24.921Z,100.00
2024-03-12T04:58:12.810Z,100.00
2024-03-12T05:01:00.776Z,100.00
2024-03-12T05:03:48.004Z,100.00
2024-03-12T05:06:36.041Z,100.00
2024-03-12T05:09:24.729Z,100.00
2024-03-12T05:12:13.408Z,100.00
2024-03-12T05:15:01.212Z,100.00
2024-03-12T05:17:49.917Z,100.00
2024-03-12T05:20:37.879Z,100.00
2024-03-12T05:23:25.229Z,100.00
2024-03-12T05:26:13.087Z,100.00
2024-03-12T05:29:02.728Z,100.00
2024-03-12T05:31:50.709Z,100.00
2024-03-12T05:34:40.671Z,100.00
2024-03-12T05:37:41.929Z,100.00
2024-03-12T05:40:47.746Z,100.00
2024-03-12T05:43:54.185Z,100.00
2024-03-12T05:47:01.672Z,100.00
2024-03-12T05:49:49.161Z,100.00
2024-03-12T05:52:36.506Z,100.00
2024-03-12T05:55:24.229Z,100.00
2024-03-12T05:58:13.880Z,100.00
2024-03-12T06:01:01.257Z,100.00
2024-03-12T06:03:51.372Z,100.00
2024-03-12T06:06:39.007Z,100.00
2024-03-12T06:09:28.558Z,100.00
2024-03-12T06:12:15.853Z,100.00
2024-03-12T06:15:06.370Z,100.00
2024-03-12T06:17:53.994Z,100.00
2024-03-12T06:20:47.324Z,100.00
2024-03-12T06:23:34.637Z,100.00
2024-03-12T06:26:23.288Z,100.00
2024-03-12T06:29:11.368Z,100.00
2024-03-12T06:31:59.234Z,100.00
2024-03-12T06:34:48.733Z,100.00
2024-03-12T06:37:37.809Z,100.00
2024-03-12T06:40:26.467Z,100.00
2024-03-12T06:43:16.470Z,100.00
2024-03-12T06:46:04.146Z,100.00
2024-03-12T06:48:54.262Z,100.00
2024-03-12T06:51:42.093Z,99.70
2024-03-12T06:54:34.114Z,99.50
2024-03-12T06:57:23.452Z,98.70
2024-03-12T07:00:14.675Z,98.20
2024-03-12T07:03:04.167Z,96.90
2024-03-12T07:05:52.072Z,94.70
2024-03-12T07:08:40.713Z,93.30
2024-03-12T07:11:30.489Z,92.50
2024-03-12T07:14:38.244Z,90.60
2024-03-12T07:17:26.908Z,88.20
2024-03-12T07:20:21.821Z,87.30
2024-03-12T07:23:09.965Z,87.90
2024-03-12T07:25:59.292Z,88.00
2024-03-12T07:28:48.187Z,87.00
2024-03-12T07:31:36.360Z,85.00
2024-03-12T07:34:23.778Z,84.30
2024-03-12T07:37:13.390Z,82.70
2024-03-12T07:40:00.707Z,82.50
2024-03-12T07:42:48.570Z,80.70
2024-03-12T07:45:37.205Z,77.90
2024-03-12T07:48:25.135Z,78.10
2024-03-12T07:51:12.657Z,76.50
2024-03-12T07:54:01.040Z,75.60
2024-03-12T07:56:51.888Z,76.40
2024-03-12T07:59:39.894Z,76.30
2024-03-12T08:02:28.772Z,78.60
2024-03-12T08:05:16.484Z,80.10
2024-03-12T08:08:07.554Z,81.10
2024-03-12T08:10:56.141Z,82.20
2024-03-12T08:13:43.520Z,82.50
2024-03-12T08:16:31.197Z,82.60
2024-03-12T08:19:20.223Z,82.70
2024-03-12T08:22:09.622Z,81.90
2024-03-12T08:24:57.674Z,81.90
2024-03-12T08:27:45.433Z,82.20
2024-03-12T08:30:34.301Z,82.30
2024-03-12T08:33:21.821Z,82.30
2024-03-12T08:36:11.909Z,83.20
2024-03-12T08:39:00.462Z,82.90
2024-03-12T08:41:47.761Z,82.90
2024-03-12T08:44:35.045Z,83.60
2024-03-12T08:47:22.385Z,82.50
2024-03-12T08:50:11.098Z,83.00
2024-03-12T08:52:59.973Z,83.00
2024-03-12T08:55:47.598Z,82.50
2024-03-12T08:58:34.866Z,82.20
2024-03-12T09:01:22.323Z,81.00
2024-03-12T09:04:10.335Z,80.90
2024-03-12T09:06:59.262Z,79.80
2024-03-12T09:09:50.068Z,80.70
2024-03-12T09:12:39.474Z,80.80
2024-03-12T09:15:27.940Z,80.70
2024-03-12T09:18:23.594Z,79.20
2024-03-12T09:21:14.478Z,79.30
2024-03-12T09:24:02.903Z,78.80
2024-03-12T09:26:53.035Z,79.10
2024-03-12T09:29:40.751Z,78.10
2024-03-12T09:32:29.692Z,78.00
2024-03-12T09:35:17.011Z,77.30
2024-03-12T09:38:04.989Z,76.70
2024-03-12T09:40:54.771Z,76.90
2024-03-12T09:43:45.447Z,77.00
2024-03-12T09:46:32.826Z,76.70
2024-03-12T09:49:20.698Z,76.80
2024-03-12T09:52:08.670Z,77.30
2024-03-12T09:54:56.865Z,77.50
2024-03-12T09:57:48.314Z,77.90
2024-03-12T10:00:37.956Z,76.90
2024-03-12T10:03:25.730Z,77.30
2024-03-12T10:06:14.332Z,77.50
2024-03-12T10:09:02.469Z,77.60
2024-03-12T10:11:50.013Z,78.00
2024-03-12T10:14:37.713Z,79.80
2024-03-12T10:17:26.600Z,80.30
2024-03-12T10:20:17.649Z,80.60
2024-03-12T10:23:11.031Z,79.90
2024-03-12T10:26:11.235Z,80.00
2024-03-12T10:29:09.746Z,80.40
2024-03-12T10:31:57.540Z,80.10
2024-03-12T10:34:46.305Z,79.80
2024-03-12T10:37:37.173Z,80.30
2024-03-12T10:40:27.280Z,80.40
2024-03-12T10:43:21.711Z,80.60
2024-03-12T10:46:11.952Z,81.50
2024-03-12T10:49:01.188Z,80.40
2024-03-12T10:51:50.199Z,81.60
2024-03-12T10:54:43.580Z,82.00
2024-03-12T10:57:34.565Z,82.30
2024-03-12T11:00:22.867Z,83.00
2024-03-12T11:03:10.655Z,83.40
2024-03-12T11:05:58.965Z,84.40
2024-03-12T11:08:47.891Z,86.00
2024-03-12T11:11:35.808Z,85.50
2024-03-12T11:14:23.710Z,84.10
2024-03-12T11:17:25.476Z,84.30
2024-03-12T11:20:13.948Z,82.10
2024-03-12T11:23:02.504Z,82.30
2024-03-12T11:25:51.730Z,81.80
2024-03-12T11:28:49.690Z,82.10
2024-03-12T11:31:39.769Z,82.40
2024-03-12T11:34:36.749Z,81.90
2024-03-12T11:37:25.571Z,82.30
2024-03-12T11:40:29.422Z,81.80
2024-03-12T11:43:40.950Z,82.70
2024-03-12T11:46:42.734Z,81.80
2024-03-12T11:49:33.676Z,80.30
2024-03-12T11:52:22.086Z,80.70
2024-03-12T11:55:12.952Z,81.20
2024-03-12T11:58:01.163Z,81.60
2024-03-12T12:00:52.408Z,82.80
2024-03-12T12:03:39.772Z,83.10
2024-03-12T12:06:27.873Z,81.80
2024-03-12T12:09:15.610Z,80.90
2024-03-12T12:12:05.282Z,79.60
2024-03-12T12:14:55.748Z,79.50
2024-03-12T12:17:44.507Z,80.60
2024-03-12T12:20:33.345Z,79.50
2024-03-12T12:23:21.664Z,78.90
2024-03-12T12:26:13.428Z,77.30
2024-03-12T12:29:02.105Z,76.30
2024-03-12T12:31:53.105Z,75.30
2024-03-12T12:34:42.706Z,74.20
2024-03-12T12:37:30.368Z,74.20
2024-03-12T12:40:19.042Z,72.90
2024-03-12T12:43:07.044Z,73.20
2024-03-12T12:45:56.217Z,74.20
2024-03-12T12:48:47.909Z,73.30
2024-03-12T12:51:38.826Z,72.40
2024-03-12T12:54:27.994Z,72.50
2024-03-12T12:57:15.852Z,73.00
2024-03-12T13:00:16.677Z,73.90
2024-03-12T13:03:17.467Z,73.90
2024-03-12T13:06:17.390Z,75.10
2024-03-12T13:09:05.994Z,76.50
2024-03-12T13:11:54.922Z,79.30
2024-03-12T13:14:45.770Z,84.10
2024-03-12T13:17:33.050Z,86.60
2024-03-12T13:20:20.979Z,85.90
2024-03-12T13:23:10.208Z,85.50
2024-03-12T13:25:59.008Z,85.40
2024-03-12T13:28:55.353Z,84.20
2024-03-12T13:31:43.450Z,83.80
2024-03-12T13:34:31.221Z,83.50
2024-03-12T13:37:19.258Z,84.10
2024-03-12T13:40:08.358Z,83.90
2024-03-12T13:42:57.556Z,85.20
2024-03-12T13:45:45.651Z,85.10
2024-03-12T13:48:37.791Z,83.80
2024-03-12T13:51:25.952Z,83.60
2024-03-12T13:54:13.254Z,85.00
2024-03-12T13:57:01.055Z,89.60
2024-03-12T13:59:49.975Z,94.30
2024-03-12T14:02:37.860Z,100.00
2024-03-12T14:05:25.837Z,100.00
2024-03-12T14:08:15.450Z,100.00
2024-03-12T14:11:03.118Z,100.00
2024-03-12T14:13:52.227Z,100.00
2024-03-12T14:16:41.231Z,100.00
2024-03-12T14:19:28.859Z,100.00
2024-03-12T14:22:16.082Z,100.00
2024-03-12T14:25:06.767Z,100.00
2024-03-12T14:27:54.404Z,100.00
2024-03-12T14:30:41.787Z,100.00
2024-03-12T14:33:30.659Z,100.00
2024-03-12T14:36:18.441Z,100.00
2024-03-12T14:39:09.279Z,100.00
2024-03-12T14:41:57.214Z,100.00
2024-03-12T14:44:44.646Z,100.00
2024-03-12T14:47:33.796Z,100.00
2024-03-12T14:50:23.450Z,100.00
2024-03-12T14:53:11.367Z,100.00
2024-03-12T14:56:01.757Z,100.00
2024-03-12T14:58:49.493Z,100.00
2024-03-12T15:01:36.970Z,100.00
2024-03-12T15:04:24.890Z,100.00
2024-03-12T15:07:14.658Z,100.00
2024-03-12T15:10:03.506Z,100.00
2024-03-12T15:12:53.786Z,100.00
2024-03-12T15:18:32.798Z,100.00
2024-03-12T15:21:21.514Z,99.80
2024-03-12T15:24:10.620Z,97.40
2024-03-12T15:26:58.518Z,97.10
2024-03-12T15:29:46.223Z,98.80
2024-03-12T15:32:33.519Z,97.10
2024-03-12T15:35:21.422Z,97.40
2024-03-12T15:38:08.702Z,96.70
2024-03-12T15:40:58.938Z,97.80
2024-03-12T15:43:46.314Z,97.60
2024-03-12T15:46:34.538Z,97.00
2024-03-12T15:49:22.142Z,99.30
2024-03-12T15:52:09.449Z,98.70
2024-03-12T15:54:57.318Z,96.50
2024-03-12T15:57:47.274Z,97.20
2024-03-12T16:00:37.084Z,100.00
2024-03-12T16:03:25.080Z,98.20
2024-03-12T16:06:15.769Z,100.00
2024-03-12T16:09:03.193Z,99.10
2024-03-12T16:11:51.048Z,100.00
2024-03-12T16:14:39.761Z,100.00
2024-03-12T16:17:31.112Z,100.00
2024-03-12T16:20:20.497Z,100.00
2024-03-12T16:23:07.880Z,100.00
2024-03-12T16:25:55.240Z,100.00
2024-03-12T16:28:42.945Z,100.00
2024-03-12T16:31:31.697Z,100.00
2024-03-12T16:34:19.312Z,100.00
2024-03-12T16:37:07.308Z,100.00
2024-03-12T16:39:54.904Z,100.00
2024-03-12T16:42:43.662Z,100.00
2024-03-12T16:45:31.054Z,100.00
2024-03-12T16:48:20.065Z,100.00
2024-03-12T16:51:07.385Z,100.00
2024-03-12T16:53:55.387Z,100.00
2024-03-12T16:56:44.744Z,99.90
2024-03-12T16:59:33.011Z,100.00
2024-03-12T17:02:21.971Z,99.80
2024-03-12T17:05:14.223Z,100.00
2024-03-12T17:08:02.362Z,100.00
2024-03-12T17:10:50.792Z,100.00
2024-03-12T17:13:40.155Z,100.00
2024-03-12T17:16:29.227Z,100.00
2024-03-12T17:19:19.482Z,100.00
2024-03-12T17:22:11.524Z,100.00
2024-03-12T17:25:01.337Z,100.00
2024-03-12T17:27:52.669Z,100.00
2024-03-12T17:30:40.975Z,100.00
2024-03-12T17:33:29.042Z,100.00
2024-03-12T17:36:21.853Z,100.00
2024-03-12T17:39:13.352Z,100.00
2024-03-12T17:42:02.393Z,100.00
2024-03-12T17:44:50.790Z,100.00
2024-03-12T17:47:38.355Z,100.00
2024-03-12T17:50:32.042Z,100.00
2024-03-12T17:53:21.964Z,100.00
2024-03-12T17:56:14.408Z,100.00
2024-03-12T17:59:03.054Z,100.00
2024-03-12T18:01:53.135Z,100.00
2024-03-12T18:04:42.139Z,100.00
2024-03-12T18:07:37.184Z,100.00
2024-03-12T18:10:27.770Z,100.00
2024-03-12T18:13:17.503Z,100.00
2024-03-12T18:16:07.268Z,100.00
2024-03-12T18:18:54.705Z,100.00
2024-03-12T18:21:42.404Z,100.00
2024-03-12T18:24:30.377Z,100.00
2024-03-12T18:27:20.264Z,100.00
2024-03-12T18:30:13.367Z,100.00
2024-03-12T18:33:02.443Z,100.00
2024-03-12T18:35:52.606Z,100.00
2024-03-12T18:38:41.249Z,100.00
2024-03-12T18:41:28.622Z,100.00
2024-03-12T18:44:16.770Z,100.00
2024-03-12T18:47:06.348Z,100.00
2024-03-12T18:49:55.988Z,100.00
2024-03-12T18:52:45.631Z,100.00
2024-03-12T18:55:34.296Z,100.00
2024-03-12T18:58:22.202Z,100.00
2024-03-12T19:01:10.529Z,100.00
2024-03-12T19:04:00.293Z,100.00
2024-03-12T19:06:49.017Z,100.00
2024-03-12T19:09:38.518Z,100.00
2024-03-12T19:12:27.131Z,100.00
2024-03-12T19:15:16.576Z,100.00
2024-03-12T19:18:14.865Z,100.00
2024-03-12T19:21:06.683Z,100.00
2024-03-12T19:23:55.630Z,100.00
2024-03-12T19:26:43.680Z,100.00
2024-03-12T19:29:31.311Z,100.00
2024-03-12T19:32:19.107Z,100.00
2024-03-12T19:35:08.588Z,100.00
2024-03-12T19:37:59.856Z,100.00
2024-03-12T19:40:47.696Z,100.00
2024-03-12T19:43:36.227Z,100.00
2024-03-12T19:46:26.223Z,100.00
2024-03-12T19:49:16.889Z,100.00
2024-03-12T19:52:06.239Z,100.00
2024-03-12T19:54:54.915Z,100.00
2024-03-12T19:57:43.281Z,100.00
2024-03-12T20:00:32.161Z,100.00
2024-03-12T20:03:23.304Z,100.00
2024-03-12T20:06:14.310Z,100.00
2024-03-12T20:09:01.688Z,100.00
2024-03-12T20:11:54.407Z,100.00
2024-03-12T20:14:42.652Z,100.00
2024-03-12T20:17:30.351Z,100.00
2024-03-12T20:20:23.125Z,100.00
2024-03-12T20:23:12.144Z,100.00
2024-03-12T20:26:01.400Z,100.00
2024-03-12T20:28:50.491Z,100.00
2024-03-12T20:31:37.861Z,100.00
2024-03-12T20:34:25.612Z,100.00
2024-03-12T20:37:13.295Z,100.00
2024-03-12T20:40:01.142Z,100.00
2024-03-12T20:42:49.606Z,100.00
2024-03-12T20:45:39.984Z,100.00
2024-03-12T20:48:27.620Z,100.00
2024-03-12T20:51:15.489Z,100.00
2024-03-12T20:54:04.263Z,100.00
2024-03-12T20:56:52.000Z,100.00
2024-03-12T20:59:42.330Z,100.00
2024-03-12T21:02:30.950Z,100.00
2024-03-12T21:05:19.513Z,100.00
2024-03-12T21:08:08.251Z,100.00
2024-03-12T21:10:55.618Z,100.00
2024-03-12T21:13:44.159Z,100.00
2024-03-12T21:16:31.954Z,100.00
2024-03-12T21:19:21.587Z,100.00
2024-03-12T21:22:09.410Z,100.00
2024-03-12T21:24:59.441Z,100.00
2024-03-12T21:27:48.134Z,100.00
2024-03-12T21:30:54.710Z,100.00
2024-03-12T21:33:41.984Z,100.00
2024-03-12T21:36:31.070Z,100.00
2024-03-12T21:39:20.004Z,100.00
2024-03-12T21:42:07.512Z,100.00
2024-03-12T21:44:54.919Z,100.00
2024-03-12T21:47:45.868Z,100.00
2024-03-12T21:50:35.131Z,100.00
2024-03-12T21:53:24.629Z,100.00
2024-03-12T21:56:13.197Z,100.00
2024-03-12T21:59:00.744Z,100.00
2024-03-12T22:01:48.793Z,100.00
2024-03-12T22:04:37.297Z,100.00
2024-03-12T22:07:27.686Z,100.00
2024-03-12T22:10:17.550Z,100.00
2024-03-12T22:13:05.211Z,100.00
2024-03-12T22:15:53.710Z,100.00
2024-03-12T22:18:41.020Z,100.00
2024-03-12T22:21:28.763Z,100.00
2024-03-12T22:24:23.156Z,100.00
2024-03-12T22:27:12.173Z,100.00
2024-03-12T22:30:00.361Z,100.00
2024-03-12T22:32:48.976Z,100.00
2024-03-12T22:35:36.369Z,100.00
2024-03-12T22:38:25.035Z,100.00
2024-03-12T22:41:12.906Z,100.00
2024-03-12T22:44:02.526Z,100.00
2024-03-12T22:46:50.616Z,100.00
2024-03-12T22:49:38.945Z,100.00
2024-03-12T22:52:28.941Z,100.00
2024-03-12T22:55:17.662Z,100.00
2024-03-12T22:58:09.593Z,100.00
2024-03-12T23:01:00.070Z,100.00
2024-03-12T23:03:47.689Z,100.00
2024-03-12T23:06:36.514Z,100.00
2024-03-12T23:09:24.754Z,100.00
2024-03-12T23:12:12.834Z,100.00
2024-03-12T23:15:01.099Z,100.00
2024-03-12T23:17:50.570Z,100.00
2024-03-12T23:20:40.704Z,100.00
2024-03-12T23:23:28.902Z,100.00
2024-03-12T23:26:18.331Z,100.00
2024-03-12T23:29:06.011Z,100.00
2024-03-12T23:31:55.114Z,100.00
2024-03-12T23:34:43.746Z,100.00
2024-03-12T23:37:31.861Z,100.00
2024-03-12T23:40:19.179Z,100.00
2024-03-12T23:43:06.999Z,100.00
2024-03-12T23:45:54.302Z,100.00
2024-03-12T23:48:43.809Z,100.00
2024-03-12T23:51:34.339Z,100.00
2024-03-12T23:54:22.039Z,100.00
2024-03-12T23:57:12.373Z,100.00
2024-03-12T23:59:59.659Z,100.00
